createdAt,value
2022-09-26T00:03:02.195Z,23.80
2022-09-26T00:08:08.956Z,23.73
2022-09-26T00:13:14.262Z,24.57
2022-09-26T00:18:21.440Z,23.00
2022-09-26T00:23:26.537Z,24.00
2022-09-26T00:28:32.091Z,23.93
2022-09-26T00:33:37.678Z,25.33
2022-09-26T00:38:43.065Z,24.27
2022-09-26T00:43:53.785Z,24.17
2022-09-26T00:49:02.080Z,22.70
2022-09-26T00:54:11.674Z,22.37
2022-09-26T00:59:31.558Z,22.67
2022-09-26T01:04:39.749Z,24.37
2022-09-26T01:09:45.795Z,23.73
2022-09-26T01:14:53.610Z,23.87
2022-09-26T01:20:11.521Z,23.10
2022-09-26T01:25:35.173Z,22.37
2022-09-26T01:30:49.778Z,22.30
2022-09-26T01:36:03.813Z,22.10
2022-09-26T01:41:17.247Z,22.20
2022-09-26T01:46:33.743Z,22.20
2022-09-26T01:51:41.924Z,21.27
2022-09-26T01:56:49.252Z,22.30
2022-09-26T02:01:57.780Z,22.77
2022-09-26T02:07:11.916Z,23.10
2022-09-26T02:12:23.204Z,20.70
2022-09-26T02:17:31.361Z,20.27
2022-09-26T02:22:37.134Z,22.80
2022-09-26T02:27:42.526Z,20.07
2022-09-26T02:32:47.824Z,22.03
2022-09-26T02:37:53.031Z,22.10
2022-09-26T02:43:25.259Z,21.93
2022-09-26T02:48:39.496Z,22.47
2022-09-26T02:53:59.765Z,22.47
2022-09-26T02:59:26.980Z,21.40
2022-09-26T03:04:37.836Z,25.03
2022-09-26T03:09:44.476Z,24.83
2022-09-26T03:14:54.142Z,24.70
2022-09-26T03:20:10.900Z,24.87
2022-09-26T03:25:24.511Z,25.30
2022-09-26T03:30:31.055Z,24.40
2022-09-26T03:35:36.427Z,27.00
2022-09-26T03:40:42.418Z,26.57
2022-09-26T03:45:48.019Z,24.93
2022-09-26T03:50:53.519Z,25.57
2022-09-26T03:56:07.457Z,25.73
2022-09-26T04:01:18.458Z,26.57
2022-09-26T04:06:23.880Z,25.10
2022-09-26T04:11:29.351Z,26.43
2022-09-26T04:16:36.380Z,25.37
2022-09-26T04:21:57.224Z,25.80
2022-09-26T04:27:10.731Z,24.10
2022-09-26T04:32:17.796Z,25.27
2022-09-26T04:37:23.832Z,25.10
2022-09-26T04:42:29.154Z,25.03
2022-09-26T04:47:34.502Z,27.17
2022-09-26T04:52:39.861Z,26.30
2022-09-26T04:57:45.628Z,27.70
2022-09-26T05:02:50.828Z,28.07
2022-09-26T05:07:56.192Z,32.10
2022-09-26T05:13:03.329Z,27.63
2022-09-26T05:18:11.435Z,28.80
2022-09-26T05:23:20.798Z,29.17
2022-09-26T05:28:27.854Z,27.87
2022-09-26T05:33:33.272Z,27.43
2022-09-26T05:38:50.546Z,25.97
2022-09-26T05:44:20.943Z,27.10
2022-09-26T05:49:27.981Z,25.97
2022-09-26T05:54:33.647Z,27.47
2022-09-26T05:59:40.214Z,26.83
2022-09-26T06:04:45.644Z,28.40
2022-09-26T06:09:53.698Z,28.00
2022-09-26T06:15:00.112Z,28.13
2022-09-26T06:20:09.726Z,29.03
2022-09-26T06:25:15.133Z,25.97
2022-09-26T06:30:22.438Z,28.90
2022-09-26T06:35:27.936Z,27.73
2022-09-26T06:40:33.986Z,28.47
2022-09-26T06:45:41.171Z,30.50
2022-09-26T06:50:46.545Z,32.30
2022-09-26T06:55:51.860Z,30.93
2022-09-26T07:00:57.395Z,32.87
2022-09-26T07:06:03.598Z,32.67
2022-09-26T07:11:31.202Z,34.83
2022-09-26T07:16:16.260Z,33.93
2022-09-26T07:21:21.753Z,35.77
2022-09-26T07:26:27.178Z,34.80
2022-09-26T07:31:32.598Z,31.43
2022-09-26T07:36:39.886Z,28.53
2022-09-26T07:41:46.969Z,27.90
2022-09-26T07:47:10.363Z,27.07
2022-09-26T07:52:17.747Z,26.90
2022-09-26T07:57:35.197Z,26.20
2022-09-26T08:02:57.479Z,24.57
2022-09-26T08:08:09.412Z,22.23
2022-09-26T08:13:16.554Z,22.30
2022-09-26T08:18:23.782Z,22.63
2022-09-26T08:23:36.658Z,22.33
2022-09-26T08:28:59.133Z,23.40
2022-09-26T09:03:26.967Z,23.40
2022-09-26T09:09:02.133Z,23.43
2022-09-26T09:15:13.728Z,21.43
2022-09-26T09:31:35.622Z,18.80
2022-09-26T09:36:57.242Z,19.07
2022-09-26T09:42:23.027Z,18.87
2022-09-26T09:47:45.171Z,21.90
2022-09-26T09:53:21.325Z,19.53
2022-09-26T10:21:58.977Z,18.57
2022-09-26T10:27:28.407Z,18.77
2022-09-26T10:32:52.894Z,18.77
2022-09-26T10:38:05.068Z,18.20
2022-09-26T10:43:32.031Z,19.57
2022-09-26T10:48:49.065Z,17.57
2022-09-26T10:53:57.462Z,17.63
2022-09-26T10:59:04.593Z,17.77
2022-09-26T11:04:17.785Z,15.97
2022-09-26T11:09:23.250Z,15.67
2022-09-26T11:14:29.712Z,15.00
2022-09-26T11:19:42.469Z,14.73
2022-09-26T11:25:06.466Z,15.63
2022-09-26T11:30:21.296Z,14.03
2022-09-26T11:35:35.840Z,11.70
2022-09-26T11:46:30.331Z,11.20
2022-09-26T11:51:59.706Z,11.50
2022-09-26T11:57:34.426Z,10.97
2022-09-26T12:03:00.818Z,11.00
2022-09-26T12:08:21.926Z,8.67
2022-09-26T12:13:41.201Z,8.83
2022-09-26T12:19:16.318Z,9.00
2022-09-26T12:24:26.999Z,8.73
2022-09-26T12:29:46.274Z,8.37
2022-09-26T12:35:14.017Z,7.97
2022-09-26T12:40:58.296Z,9.10
2022-09-26T12:46:27.695Z,8.00
2022-09-26T12:52:26.571Z,8.27
2022-09-26T12:57:56.267Z,8.47
2022-09-26T13:03:16.498Z,7.70
2022-09-26T13:08:47.411Z,22.30
2022-09-26T13:14:15.643Z,7.33
2022-09-26T13:25:53.808Z,7.47
2022-09-26T13:31:32.703Z,7.20
2022-09-26T13:48:47.497Z,10.10
2022-09-26T13:54:20.405Z,32.83
2022-09-26T13:59:44.656Z,10.10
2022-09-26T14:05:10.277Z,6.67
2022-09-26T14:22:39.438Z,33.53
2022-09-26T14:28:24.193Z,26.43
2022-09-26T14:33:58.792Z,16.20
2022-09-26T14:39:09.619Z,10.83
2022-09-26T14:44:19.575Z,7.37
2022-09-26T14:49:28.867Z,5.67
2022-09-26T14:54:43.765Z,6.10
2022-09-26T14:59:50.365Z,5.93
2022-09-26T15:05:07.210Z,6.33
2022-09-26T15:10:27.202Z,6.13
2022-09-26T15:15:44.310Z,8.00
2022-09-26T15:20:52.785Z,8.67
2022-09-26T15:26:05.056Z,10.87
2022-09-26T15:37:21.621Z,15.23
2022-09-26T15:42:48.165Z,18.10
2022-09-26T15:47:57.794Z,28.57
2022-09-26T15:53:29.318Z,31.30
2022-09-26T15:58:49.868Z,42.70
2022-09-26T16:04:16.097Z,42.00
2022-09-26T16:09:43.693Z,36.67
2022-09-26T16:20:33.378Z,24.60
2022-09-26T16:26:06.711Z,20.80
2022-09-26T16:31:21.780Z,18.70
2022-09-26T16:36:35.019Z,20.27
2022-09-26T16:42:02.715Z,29.60
2022-09-26T16:47:01.932Z,38.70
2022-09-26T16:52:29.657Z,43.80
2022-09-26T16:57:53.454Z,50.60
2022-09-26T17:08:33.611Z,73.07
2022-09-26T17:13:53.337Z,44.70
2022-09-26T17:18:58.373Z,39.57
2022-09-26T17:24:30.837Z,43.30
2022-09-26T17:29:59.348Z,31.73
2022-09-26T17:35:29.581Z,32.77
2022-09-26T17:46:45.684Z,21.37
2022-09-26T17:52:30.279Z,30.77
2022-09-26T17:57:41.751Z,33.93
2022-09-26T18:03:10.281Z,35.10
2022-09-26T18:08:39.779Z,31.73
2022-09-26T18:14:14.891Z,38.90
2022-09-26T18:19:26.839Z,32.97
2022-09-26T18:24:42.205Z,32.80
2022-09-26T18:29:59.689Z,26.43
2022-09-26T18:35:45.737Z,22.40
2022-09-26T18:40:59.674Z,18.23
2022-09-26T18:46:30.288Z,17.47
2022-09-26T18:52:00.548Z,14.77
2022-09-26T18:57:31.049Z,12.97
2022-09-26T19:02:39.732Z,12.23
2022-09-26T19:07:45.381Z,11.67
2022-09-26T19:12:51.872Z,12.27
2022-09-26T19:18:03.881Z,12.37
2022-09-26T19:23:13.529Z,11.67
2022-09-26T19:28:22.382Z,13.87
2022-09-26T19:33:48.445Z,16.77
2022-09-26T19:38:53.815Z,13.97
2022-09-26T19:44:00.536Z,13.23
2022-09-26T19:49:09.220Z,13.87
2022-09-26T19:54:25.699Z,12.40
2022-09-26T19:59:35.959Z,13.80
2022-09-26T20:05:05.104Z,11.23
2022-09-26T20:10:24.124Z,12.60
2022-09-26T20:15:49.769Z,13.73
2022-09-26T20:21:04.084Z,17.10
2022-09-26T20:26:26.413Z,13.87
2022-09-26T20:31:35.389Z,12.17
2022-09-26T20:36:50.909Z,14.97
2022-09-26T20:53:35.629Z,14.00
2022-09-26T20:59:13.671Z,14.07
2022-09-26T21:04:24.505Z,16.97
2022-09-26T21:09:29.874Z,17.37
2022-09-26T21:20:31.335Z,13.90
2022-09-26T21:25:55.051Z,11.47
2022-09-26T21:31:18.145Z,9.20
2022-09-26T21:36:46.570Z,10.03
2022-09-26T21:41:59.165Z,9.57
2022-09-26T21:53:05.745Z,9.80
2022-09-26T21:58:50.583Z,9.77
2022-09-26T22:03:59.804Z,9.17
2022-09-26T22:14:34.315Z,12.63
2022-09-26T22:19:42.933Z,13.60
2022-09-26T22:24:55.607Z,21.60
2022-09-26T22:30:09.238Z,20.30
2022-09-26T22:35:19.381Z,17.03
2022-09-26T22:40:28.231Z,15.50
2022-09-26T22:45:53.346Z,11.97
2022-09-26T22:51:06.798Z,12.07
2022-09-26T22:56:20.129Z,10.80
2022-09-26T23:01:32.167Z,11.03
2022-09-26T23:06:43.872Z,9.90
2022-09-26T23:11:49.301Z,11.60
2022-09-26T23:17:13.956Z,18.83
2022-09-26T23:22:22.966Z,21.23
2022-09-26T23:27:50.564Z,18.13
2022-09-26T23:32:55.882Z,19.07
2022-09-26T23:38:05.293Z,18.07
2022-09-26T23:43:20.055Z,17.00
2022-09-26T23:48:26.946Z,15.20
2022-09-26T23:53:34.204Z,15.90
2022-09-26T23:59:02.120Z,13.90
